Terminal Aerodrome Forecast
Issued by NWS

Current Version | Previous Version | Text Only | Print | Product List | Glossary On
Versions: 1 2 3 4 5 6 7 8 9 10 11 12 13
000
FTAK31 PAJN 131100
TAFAWG
TAF
PAWG 131128Z 1312/1412 VRB03KT P6SM SCT080 SCT120
     FM132100 31006KT P6SM SCT040 SCT070
     FM140400 28004KT P6SM SCT040 BKN070
      AMD LTD TO CLD VIS AND WIND TIL 131500=

USA.gov is the U.S. government's official web portal to all federal, state and local government web resources and services.